Time;durP1;ratioP1;P1;durP2;ratioP2;P2;SDS_P1;SDS_P2;PMS_P1;PMS_P2;Temp;Humidity;BMP_temperature;BMP_pressure;BME280_temperature;BME280_humidity;BME280_pressure;Samples;Min_cycle;Max_cycle;Signal;HPM_P1;HPM_P2
2020/12/16 00:01:30;;;;;;;15.73;7.10;;;9.40;90.30;;;;;;4963164;28;20023;-50
2020/12/16 00:03:56;;;;;;;16.65;7.05;;;9.40;90.30;;;;;;4965145;28;20078;-50
2020/12/16 00:06:21;;;;;;;14.52;6.80;;;9.40;90.20;;;;;;4961240;28;20034;-50
2020/12/16 00:08:47;;;;;;;19.60;7.63;;;9.40;90.30;;;;;;4965840;28;20051;-50
2020/12/16 00:11:13;;;;;;;19.55;7.75;;;9.40;90.30;;;;;;4961999;28;20041;-51
2020/12/16 00:13:39;;;;;;;14.88;6.57;;;9.40;90.30;;;;;;4964188;28;20461;-51
2020/12/16 00:16:07;;;;;;;18.45;7.93;;;9.40;90.30;;;;;;4962398;28;20050;-51
2020/12/16 00:18:33;;;;;;;14.90;6.53;;;9.40;90.20;;;;;;4962871;28;20430;-51
2020/12/16 00:20:58;;;;;;;17.65;7.97;;;9.40;90.30;;;;;;4969102;28;20140;-51
2020/12/16 00:23:24;;;;;;;13.80;7.50;;;9.30;90.20;;;;;;4968701;28;20030;-51
2020/12/16 00:25:50;;;;;;;15.38;7.10;;;9.40;90.10;;;;;;4967121;28;20061;-51
2020/12/16 00:28:15;;;;;;;15.10;7.47;;;9.40;90.20;;;;;;4968637;28;20350;-51
2020/12/16 00:30:41;;;;;;;12.95;7.03;;;9.40;90.10;;;;;;4966333;28;20031;-50
2020/12/16 00:33:06;;;;;;;16.25;6.75;;;9.40;90.20;;;;;;4967228;28;20039;-51
2020/12/16 00:35:32;;;;;;;13.13;7.00;;;9.40;90.20;;;;;;4966832;28;20042;-51
2020/12/16 00:37:58;;;;;;;14.75;6.50;;;9.40;90.20;;;;;;4966884;28;20030;-51
2020/12/16 00:40:24;;;;;;;15.18;7.07;;;9.40;90.20;;;;;;4966827;28;20032;-51
2020/12/16 00:42:51;;;;;;;18.70;6.38;;;9.40;90.20;;;;;;4965197;28;20098;-51
2020/12/16 00:45:17;;;;;;;15.68;7.43;;;9.40;90.20;;;;;;4963130;28;20044;-50
2020/12/16 00:47:43;;;;;;;11.73;6.18;;;9.40;90.20;;;;;;4967848;28;20029;-51
2020/12/16 00:50:11;;;;;;;14.88;6.25;;;9.30;90.20;;;;;;4974788;28;20110;-51
2020/12/16 00:52:37;;;;;;;11.10;5.72;;;9.30;90.20;;;;;;4967273;28;20046;-50
2020/12/16 00:55:05;;;;;;;16.58;7.38;;;9.40;90.20;;;;;;4975960;28;20056;-51
2020/12/16 00:57:33;;;;;;;14.48;7.03;;;9.30;90.20;;;;;;4963843;28;20067;-51
2020/12/16 00:59:58;;;;;;;18.13;7.82;;;9.30;90.20;;;;;;4969921;28;20449;-51
2020/12/16 01:02:24;;;;;;;18.02;6.85;;;9.30;90.20;;;;;;4975454;28;20041;-51
2020/12/16 01:04:49;;;;;;;17.05;7.07;;;9.30;90.20;;;;;;4977982;28;20119;-50
2020/12/16 01:07:15;;;;;;;13.60;7.25;;;9.30;90.50;;;;;;4974603;28;20035;-51
2020/12/16 01:09:41;;;;;;;14.20;7.05;;;9.30;90.10;;;;;;4959231;28;20027;-50
2020/12/16 01:12:06;;;;;;;17.42;6.93;;;9.30;90.20;;;;;;4968691;28;20042;-51
2020/12/16 01:14:32;;;;;;;12.45;6.15;;;9.30;90.10;;;;;;4973502;28;20054;-51
2020/12/16 01:16:58;;;;;;;13.25;6.00;;;9.30;90.10;;;;;;4974715;28;20035;-51
2020/12/16 01:19:23;;;;;;;14.85;5.75;;;9.30;90.30;;;;;;4958389;28;20358;-51
2020/12/16 01:21:49;;;;;;;13.82;6.80;;;9.30;90.10;;;;;;4961984;28;20105;-50
2020/12/16 01:24:15;;;;;;;13.70;6.65;;;9.30;90.20;;;;;;4970389;28;20054;-51
2020/12/16 01:26:46;;;;;;;12.98;6.22;;;9.30;90.20;;;;;;4958335;28;20550;-51
2020/12/16 01:29:15;;;;;;;11.25;6.22;;;9.30;90.20;;;;;;4974596;28;20033;-51
2020/12/16 01:31:43;;;;;;;14.57;5.93;;;9.30;90.20;;;;;;4975227;28;20046;-51
2020/12/16 01:34:09;;;;;;;16.40;6.75;;;9.30;90.20;;;;;;4961166;28;20086;-50
2020/12/16 01:36:42;;;;;;;12.38;6.18;;;9.30;90.30;;;;;;4969792;28;20019;-51
2020/12/16 01:39:09;;;;;;;13.65;7.22;;;9.30;90.30;;;;;;4972655;28;20101;-51
2020/12/16 01:41:47;;;;;;;15.50;7.45;;;9.30;90.20;;;;;;4961020;28;20031;-51
2020/12/16 01:44:24;;;;;;;17.63;7.43;;;9.30;90.20;;;;;;4963642;28;20031;-50
2020/12/16 01:46:55;;;;;;;24.27;8.60;;;9.30;90.20;;;;;;4974888;28;20056;-50
2020/12/16 01:49:21;;;;;;;19.77;8.20;;;9.30;90.20;;;;;;4957677;28;20449;-51
2020/12/16 01:51:53;;;;;;;18.15;7.10;;;9.40;90.30;;;;;;4957652;28;20184;-51
2020/12/16 01:54:20;;;;;;;16.95;7.53;;;9.30;90.20;;;;;;4957415;28;20027;-51
2020/12/16 01:56:50;;;;;;;16.13;7.28;;;9.30;90.30;;;;;;4958834;28;20487;-51
2020/12/16 01:59:17;;;;;;;15.87;7.17;;;9.30;90.30;;;;;;4971367;28;20453;-51
2020/12/16 02:01:45;;;;;;;17.35;7.15;;;9.30;90.20;;;;;;4967828;28;20776;-51
2020/12/16 02:04:12;;;;;;;14.77;7.20;;;9.30;90.20;;;;;;4967487;28;20027;-51
2020/12/16 02:06:40;;;;;;;15.27;7.32;;;9.30;90.20;;;;;;4957056;28;20114;-51
2020/12/16 02:09:10;;;;;;;17.33;7.13;;;9.30;90.20;;;;;;4956583;29;20038;-51
2020/12/16 02:11:39;;;;;;;13.02;6.30;;;9.30;90.30;;;;;;4957367;28;20043;-51
2020/12/16 02:14:06;;;;;;;11.35;6.13;;;9.40;90.20;;;;;;4962854;28;20069;-51
2020/12/16 02:16:34;;;;;;;14.30;6.88;;;9.30;90.20;;;;;;4969754;28;20449;-51
2020/12/16 02:19:00;;;;;;;13.27;5.90;;;9.40;90.30;;;;;;4971202;28;20534;-51
2020/12/16 02:21:27;;;;;;;18.00;6.82;;;9.30;90.20;;;;;;4974057;28;20035;-51
2020/12/16 02:24:01;;;;;;;14.55;6.75;;;9.30;90.20;;;;;;4959684;28;20039;-51
2020/12/16 02:26:27;;;;;;;13.63;6.25;;;9.40;90.40;;;;;;4968022;28;20035;-51
2020/12/16 02:28:53;;;;;;;10.85;6.18;;;9.40;90.30;;;;;;4968170;28;20038;-51
2020/12/16 02:31:20;;;;;;;10.35;5.88;;;9.40;90.30;;;;;;4956977;29;20132;-51
2020/12/16 02:33:45;;;;;;;19.67;5.97;;;9.30;90.30;;;;;;4970665;28;20035;-51
2020/12/16 02:36:11;;;;;;;16.70;6.65;;;9.40;90.20;;;;;;4975925;28;20072;-51
2020/12/16 02:38:47;;;;;;;13.27;5.45;;;9.40;90.70;;;;;;4973747;28;20425;-50
2020/12/16 02:41:13;;;;;;;13.85;6.05;;;9.40;90.30;;;;;;4964460;28;20058;-51
2020/12/16 02:43:38;;;;;;;10.40;5.80;;;9.30;90.30;;;;;;4957347;28;20492;-51
2020/12/16 02:46:04;;;;;;;14.02;6.03;;;9.40;90.30;;;;;;4965430;28;20030;-50
2020/12/16 02:48:30;;;;;;;11.63;6.40;;;9.40;90.30;;;;;;4965465;28;20026;-51
2020/12/16 02:50:55;;;;;;;11.60;5.95;;;9.30;90.30;;;;;;4974772;28;20046;-51
2020/12/16 02:53:21;;;;;;;15.23;6.80;;;9.40;90.40;;;;;;4956684;29;20515;-51
2020/12/16 02:55:47;;;;;;;12.23;6.15;;;9.40;90.40;;;;;;4957580;28;20601;-51
2020/12/16 02:58:13;;;;;;;13.52;6.82;;;9.30;90.40;;;;;;4961025;28;20049;-51
2020/12/16 03:00:38;;;;;;;11.52;5.85;;;9.30;90.50;;;;;;4957671;28;20023;-51
2020/12/16 03:03:04;;;;;;;14.43;6.25;;;9.30;90.50;;;;;;4960854;28;20109;-51
2020/12/16 03:05:30;;;;;;;13.18;6.65;;;9.30;90.30;;;;;;4975388;28;20027;-51
2020/12/16 03:07:55;;;;;;;11.93;6.35;;;9.30;90.30;;;;;;4970441;28;20039;-51
2020/12/16 03:10:21;;;;;;;11.93;6.72;;;9.30;90.40;;;;;;4954915;29;20035;-51
2020/12/16 03:12:46;;;;;;;13.98;6.50;;;9.30;90.30;;;;;;4971526;28;20043;-51
2020/12/16 03:15:12;;;;;;;15.02;6.78;;;9.30;90.30;;;;;;4958991;28;20066;-50
2020/12/16 03:17:38;;;;;;;13.50;6.15;;;9.30;90.40;;;;;;4970011;28;20069;-51
2020/12/16 03:20:03;;;;;;;13.75;6.53;;;9.30;90.40;;;;;;4956049;29;20023;-51
2020/12/16 03:22:29;;;;;;;14.93;7.47;;;9.30;90.30;;;;;;4959813;28;20078;-51
2020/12/16 03:24:55;;;;;;;15.32;6.38;;;9.40;90.40;;;;;;4956404;28;20467;-51
2020/12/16 03:27:21;;;;;;;16.20;6.82;;;9.40;90.30;;;;;;4956850;28;20027;-51
2020/12/16 03:29:47;;;;;;;14.10;6.63;;;9.40;90.40;;;;;;4975275;28;20027;-51
2020/12/16 03:32:12;;;;;;;15.32;7.20;;;9.40;90.30;;;;;;4969022;28;20034;-51
2020/12/16 03:34:38;;;;;;;14.85;7.05;;;9.40;90.40;;;;;;4956243;28;20074;-51
2020/12/16 03:37:04;;;;;;;11.35;6.43;;;9.30;90.40;;;;;;4957547;28;20464;-51
2020/12/16 03:39:30;;;;;;;12.70;5.85;;;9.40;90.40;;;;;;4972535;28;20030;-51
2020/12/16 03:41:55;;;;;;;10.98;6.10;;;9.40;90.30;;;;;;4969039;28;20357;-51
2020/12/16 03:44:21;;;;;;;16.85;7.35;;;9.40;90.30;;;;;;4958228;28;20465;-51
2020/12/16 03:46:51;;;;;;;13.68;6.65;;;9.40;90.30;;;;;;4957783;28;20039;-51
2020/12/16 03:49:17;;;;;;;16.33;7.25;;;9.40;90.30;;;;;;4971268;28;20062;-51
2020/12/16 03:51:43;;;;;;;13.52;7.32;;;9.40;90.30;;;;;;4965074;28;20035;-51
2020/12/16 03:54:09;;;;;;;15.27;7.18;;;9.40;90.40;;;;;;4974635;28;20031;-51
2020/12/16 03:56:34;;;;;;;15.27;7.20;;;9.40;90.40;;;;;;4977330;28;20029;-51
2020/12/16 03:59:00;;;;;;;11.90;6.30;;;9.40;90.40;;;;;;4963329;28;20059;-51
2020/12/16 04:01:26;;;;;;;13.43;7.43;;;9.40;90.40;;;;;;4977239;28;20482;-51
2020/12/16 04:03:51;;;;;;;18.35;7.70;;;9.40;90.30;;;;;;4960887;28;20035;-51
2020/12/16 04:06:17;;;;;;;13.63;6.70;;;9.40;90.30;;;;;;4959437;28;20076;-51
2020/12/16 04:08:44;;;;;;;11.30;5.63;;;9.40;90.30;;;;;;4964533;28;20409;-51
2020/12/16 04:11:12;;;;;;;16.08;7.20;;;9.40;90.30;;;;;;4961705;28;20035;-51
2020/12/16 04:13:38;;;;;;;13.50;6.85;;;9.40;90.30;;;;;;4970778;28;20066;-51
2020/12/16 04:16:05;;;;;;;17.23;7.85;;;9.40;90.30;;;;;;4966599;28;20035;-51
2020/12/16 04:18:31;;;;;;;12.25;6.00;;;9.40;90.40;;;;;;4969343;28;20075;-51
2020/12/16 04:20:56;;;;;;;15.85;6.60;;;9.40;90.30;;;;;;4976318;28;20027;-51
2020/12/16 04:23:22;;;;;;;12.25;7.00;;;9.40;90.40;;;;;;4978678;28;20051;-51
2020/12/16 04:25:48;;;;;;;11.13;6.00;;;9.40;90.30;;;;;;4977760;28;20031;-51
2020/12/16 04:28:13;;;;;;;12.07;6.95;;;9.40;90.30;;;;;;4963343;28;20506;-51
2020/12/16 04:30:39;;;;;;;10.77;5.95;;;9.40;90.30;;;;;;4961018;28;20042;-51
2020/12/16 04:33:04;;;;;;;14.10;5.78;;;9.40;90.40;;;;;;4973298;28;20050;-51
2020/12/16 04:35:30;;;;;;;14.13;6.65;;;9.40;90.40;;;;;;4959012;28;20027;-51
2020/12/16 04:37:56;;;;;;;14.38;6.93;;;9.40;90.30;;;;;;4975371;28;20045;-51
2020/12/16 04:40:23;;;;;;;14.32;7.75;;;9.40;90.30;;;;;;4975186;28;20368;-51
2020/12/16 04:43:08;;;;;;;12.32;6.95;;;9.40;90.30;;;;;;4973848;28;20019;-51
2020/12/16 04:45:37;;;;;;;11.70;6.18;;;9.40;90.70;;;;;;4965782;28;20101;-51
2020/12/16 04:48:07;;;;;;;13.75;6.88;;;9.40;90.30;;;;;;4962044;28;20433;-51
2020/12/16 04:50:33;;;;;;;15.10;7.15;;;9.40;90.20;;;;;;4958755;28;20043;-51
2020/12/16 04:53:08;;;;;;;14.43;6.13;;;9.30;90.30;;;;;;4971506;28;20042;-51
2020/12/16 04:55:34;;;;;;;11.43;6.05;;;9.40;90.30;;;;;;4962831;28;20109;-51
2020/12/16 04:58:01;;;;;;;10.27;5.68;;;9.40;90.30;;;;;;4958811;28;20077;-51
2020/12/16 05:00:29;;;;;;;12.02;6.03;;;9.30;90.30;;;;;;4965210;28;20034;-51
2020/12/16 05:03:00;;;;;;;11.77;6.43;;;9.40;90.40;;;;;;4961814;28;20035;-50
2020/12/16 05:05:27;;;;;;;14.05;6.85;;;9.40;90.40;;;;;;4970914;28;20038;-51
2020/12/16 05:07:53;;;;;;;14.27;7.03;;;9.40;90.30;;;;;;4965065;28;20450;-51
2020/12/16 05:10:33;;;;;;;13.18;6.45;;;9.40;90.30;;;;;;4968734;28;20037;-51
2020/12/16 05:13:03;;;;;;;;;;;9.40;90.30;;;;;;4963296;28;20047;-51
2020/12/16 05:15:28;;;;;;;13.00;6.32;;;9.40;90.30;;;;;;4959352;28;19910;-51
2020/12/16 05:18:25;;;;;;;12.98;6.50;;;9.40;90.30;;;;;;4966822;28;20467;-51
2020/12/16 05:20:55;;;;;;;15.43;7.13;;;9.40;90.30;;;;;;4958113;29;20090;-51
2020/12/16 05:23:29;;;;;;;;;;;9.40;90.20;;;;;;4963674;28;20110;-51
2020/12/16 05:25:58;;;;;;;12.07;6.43;;;9.30;90.20;;;;;;4965700;28;20005;-52
2020/12/16 05:28:29;;;;;;;12.35;7.05;;;9.40;90.30;;;;;;4957963;29;20031;-51
2020/12/16 05:30:55;;;;;;;11.48;6.03;;;9.40;90.30;;;;;;4963058;28;20035;-52
2020/12/16 05:33:21;;;;;;;12.65;6.35;;;9.40;90.20;;;;;;4960975;28;20174;-51
2020/12/16 05:35:51;;;;;;;12.18;6.45;;;9.40;90.30;;;;;;4958051;28;20035;-51
2020/12/16 05:38:17;;;;;;;10.70;6.07;;;9.40;90.20;;;;;;4959927;28;20062;-52
2020/12/16 05:40:43;;;;;;;11.73;5.57;;;9.40;90.20;;;;;;4960028;28;20023;-51
2020/12/16 05:43:19;;;;;;;10.80;6.20;;;9.40;90.20;;;;;;4969941;28;20513;-51
2020/12/16 05:45:45;;;;;;;14.77;5.88;;;9.40;90.10;;;;;;4973132;28;20030;-51
2020/12/16 05:48:12;;;;;;;11.65;4.97;;;9.40;90.10;;;;;;4976580;28;20422;-52
2020/12/16 05:50:51;;;;;;;10.98;5.85;;;9.40;90.20;;;;;;4977086;28;20030;-51
2020/12/16 05:53:19;;;;;;;11.45;6.47;;;9.40;90.10;;;;;;4970247;28;20380;-51
2020/12/16 05:55:59;;;;;;;11.32;5.78;;;9.40;90.20;;;;;;4972560;28;20516;-52
2020/12/16 05:58:28;;;;;;;11.70;6.30;;;9.40;90.20;;;;;;4973469;28;20479;-51
2020/12/16 06:00:58;;;;;;;11.40;5.97;;;9.40;90.10;;;;;;4969491;28;20334;-52
2020/12/16 06:03:30;;;;;;;12.23;5.67;;;9.40;90.10;;;;;;4961166;28;20085;-51
2020/12/16 06:06:05;;;;;;;12.50;5.60;;;9.40;90.20;;;;;;4966954;28;20228;-52
2020/12/16 06:08:42;;;;;;;13.55;6.20;;;9.40;90.10;;;;;;4966660;28;20553;-52
2020/12/16 06:11:09;;;;;;;9.85;5.18;;;9.40;90.10;;;;;;4964833;28;20027;-52
2020/12/16 06:13:36;;;;;;;10.10;5.40;;;9.40;90.40;;;;;;4965587;28;20035;-52
2020/12/16 06:16:03;;;;;;;13.02;6.25;;;9.40;90.20;;;;;;4964974;28;20535;-52
2020/12/16 06:18:38;;;;;;;11.15;5.30;;;9.40;90.10;;;;;;4961915;28;20471;-52
2020/12/16 06:21:06;;;;;;;18.15;7.15;;;9.40;90.10;;;;;;4959737;28;20041;-52
2020/12/16 06:23:34;;;;;;;13.85;5.90;;;9.40;90.10;;;;;;4958454;28;20062;-52
2020/12/16 06:26:01;;;;;;;13.57;6.38;;;9.40;90.10;;;;;;4962586;28;20131;-51
2020/12/16 06:28:27;;;;;;;12.55;5.68;;;9.40;90.10;;;;;;4958487;28;20046;-52
2020/12/16 06:31:17;;;;;;;10.88;6.05;;;9.40;90.10;;;;;;4962283;28;20475;-52
2020/12/16 06:33:55;;;;;;;12.07;5.32;;;9.40;90.10;;;;;;4961468;28;20089;-52
2020/12/16 06:36:29;;;;;;;14.95;6.15;;;9.40;90.00;;;;;;4956963;28;20229;-52
2020/12/16 06:38:55;;;;;;;12.05;6.03;;;9.40;90.10;;;;;;4964138;28;20062;-52
2020/12/16 06:41:22;;;;;;;12.65;5.82;;;9.40;90.10;;;;;;4968098;28;20034;-52
2020/12/16 06:43:49;;;;;;;9.60;5.40;;;9.40;90.20;;;;;;4973494;28;20460;-52
2020/12/16 06:46:33;;;;;;;11.93;6.03;;;9.40;90.20;;;;;;4975456;28;20111;-52
2020/12/16 06:49:03;;;;;;;9.13;5.53;;;9.40;90.10;;;;;;4963484;28;20082;-52
2020/12/16 06:51:30;;;;;;;13.82;5.22;;;9.40;90.10;;;;;;4969651;28;20364;-52
2020/12/16 06:54:07;;;;;;;13.80;6.43;;;9.40;90.10;;;;;;4962818;28;20038;-52
2020/12/16 06:56:33;;;;;;;12.82;6.00;;;9.40;90.00;;;;;;4971521;28;20166;-52
2020/12/16 06:58:59;;;;;;;9.63;5.75;;;9.40;90.00;;;;;;4969434;28;20096;-52
2020/12/16 07:01:25;;;;;;;9.63;5.30;;;9.40;90.00;;;;;;4967941;28;20497;-52
2020/12/16 07:03:50;;;;;;;9.32;5.40;;;9.40;90.10;;;;;;4970547;28;20161;-52
2020/12/16 07:06:28;;;;;;;9.63;5.45;;;9.40;90.10;;;;;;4974872;28;20030;-52
2020/12/16 07:09:13;;;;;;;8.48;5.20;;;9.40;90.10;;;;;;4962386;28;20392;-52
2020/12/16 07:11:43;;;;;;;15.85;5.68;;;9.40;90.10;;;;;;4971052;28;20019;-52
2020/12/16 07:14:10;;;;;;;11.48;5.65;;;9.40;90.00;;;;;;4974983;28;20049;-52
2020/12/16 07:16:36;;;;;;;10.98;5.97;;;9.40;90.10;;;;;;4968269;28;20020;-52
2020/12/16 07:19:03;;;;;;;13.32;6.10;;;9.40;90.00;;;;;;4970801;28;20341;-52
2020/12/16 07:21:35;;;;;;;12.68;5.93;;;9.40;90.20;;;;;;4964118;28;20023;-52
2020/12/16 07:24:03;;;;;;;11.18;5.88;;;9.50;90.10;;;;;;4967245;28;20120;-52
2020/12/16 07:26:31;;;;;;;11.27;6.07;;;9.40;90.20;;;;;;4962764;28;20035;-52
2020/12/16 07:28:58;;;;;;;11.30;5.72;;;9.50;90.20;;;;;;4971576;28;20038;-52
2020/12/16 07:31:24;;;;;;;12.57;5.68;;;9.50;90.00;;;;;;4973508;28;20050;-52
2020/12/16 07:33:51;;;;;;;11.52;6.07;;;9.50;90.10;;;;;;4970220;28;20089;-52
2020/12/16 07:36:18;;;;;;;11.82;6.38;;;9.50;90.00;;;;;;4974100;28;20034;-52
2020/12/16 07:38:54;;;;;;;11.35;5.78;;;9.50;90.00;;;;;;4971443;28;20069;-52
2020/12/16 07:41:29;;;;;;;12.45;5.93;;;9.50;90.00;;;;;;4976641;28;20023;-51
2020/12/16 07:43:59;;;;;;;11.52;6.07;;;9.50;90.00;;;;;;4979162;28;20034;-52
2020/12/16 07:46:25;;;;;;;12.45;5.95;;;9.50;90.00;;;;;;4968020;28;20105;-52
2020/12/16 07:48:52;;;;;;;13.32;5.85;;;9.50;90.00;;;;;;4971949;28;20038;-52
2020/12/16 07:51:19;;;;;;;12.18;5.47;;;9.50;90.00;;;;;;4974199;28;20090;-52
2020/12/16 07:53:47;;;;;;;16.45;6.28;;;9.50;90.00;;;;;;4967900;28;20038;-52
2020/12/16 07:56:16;;;;;;;11.98;5.82;;;9.50;90.00;;;;;;4971276;28;20070;-52
2020/12/16 07:58:41;;;;;;;10.52;6.35;;;9.50;90.00;;;;;;4976377;28;20515;-51
2020/12/16 08:01:11;;;;;;;13.95;6.57;;;9.50;90.10;;;;;;4977193;28;20031;-51
2020/12/16 08:03:37;;;;;;;14.00;6.60;;;9.50;90.00;;;;;;4978678;28;20031;-52
2020/12/16 08:06:04;;;;;;;10.75;6.63;;;9.50;90.00;;;;;;4978765;28;20540;-51
2020/12/16 08:08:30;;;;;;;13.70;6.53;;;9.50;90.10;;;;;;4978374;28;20035;-52
2020/12/16 08:10:56;;;;;;;13.43;6.38;;;9.50;90.10;;;;;;4975924;28;20034;-51
2020/12/16 08:13:24;;;;;;;13.32;7.05;;;9.50;90.00;;;;;;4964065;28;20046;-52
2020/12/16 08:15:50;;;;;;;13.20;7.00;;;9.50;90.00;;;;;;4971543;28;20113;-52
2020/12/16 08:18:17;;;;;;;13.27;6.75;;;9.50;90.00;;;;;;4968834;28;20024;-52
2020/12/16 08:20:44;;;;;;;15.32;6.45;;;9.50;90.00;;;;;;4968815;28;20028;-52
2020/12/16 08:23:14;;;;;;;13.90;7.22;;;9.50;90.00;;;;;;4961012;28;20416;-51
2020/12/16 08:25:41;;;;;;;12.10;6.75;;;9.50;90.00;;;;;;4966959;28;20030;-52
2020/12/16 08:28:07;;;;;;;14.60;6.55;;;9.50;90.00;;;;;;4977110;28;20051;-52
2020/12/16 08:30:34;;;;;;;10.65;6.07;;;9.50;90.10;;;;;;4975733;28;20042;-52
2020/12/16 08:33:07;;;;;;;12.98;6.15;;;9.50;90.10;;;;;;4967769;28;20043;-52
2020/12/16 08:35:33;;;;;;;15.77;7.20;;;9.60;90.20;;;;;;4977191;28;20046;-52
2020/12/16 08:38:07;;;;;;;11.20;6.93;;;9.60;90.30;;;;;;4972718;28;20035;-52
2020/12/16 08:40:38;;;;;;;11.35;6.38;;;9.50;90.30;;;;;;4968739;28;20023;-52
2020/12/16 08:43:19;;;;;;;14.57;6.95;;;9.60;90.30;;;;;;4973044;28;20472;-52
2020/12/16 08:45:46;;;;;;;15.68;7.07;;;9.60;90.20;;;;;;4963021;28;20113;-52
2020/12/16 08:48:11;;;;;;;25.77;7.25;;;9.60;90.40;;;;;;4977568;28;20023;-52
2020/12/16 08:50:37;;;;;;;15.32;7.30;;;9.60;90.40;;;;;;4968245;28;20426;-52
2020/12/16 08:53:03;;;;;;;14.55;6.93;;;9.60;90.40;;;;;;4971810;28;20042;-52
2020/12/16 08:55:37;;;;;;;14.57;6.97;;;9.60;90.40;;;;;;4963853;28;20042;-52
2020/12/16 08:58:04;;;;;;;14.07;6.70;;;9.60;90.40;;;;;;4963600;28;20026;-52
2020/12/16 09:00:35;;;;;;;17.42;6.97;;;9.60;90.40;;;;;;4964974;28;20086;-52
2020/12/16 09:03:02;;;;;;;16.08;7.45;;;9.60;90.40;;;;;;4973692;28;20074;-52
2020/12/16 09:05:28;;;;;;;17.67;8.15;;;9.60;90.30;;;;;;4976904;28;20023;-52
2020/12/16 09:08:08;;;;;;;12.43;6.20;;;9.70;90.30;;;;;;4966533;28;20535;-52
2020/12/16 09:10:35;;;;;;;14.52;6.43;;;9.70;90.40;;;;;;4975617;28;20403;-52
2020/12/16 09:13:20;;;;;;;16.85;7.15;;;9.60;90.30;;;;;;4970166;28;20054;-52
2020/12/16 09:15:49;;;;;;;15.20;7.07;;;9.60;90.40;;;;;;4962952;28;20122;-52
2020/12/16 09:18:16;;;;;;;15.47;7.47;;;9.60;90.30;;;;;;4963946;28;20027;-51
2020/12/16 09:20:42;;;;;;;17.95;7.82;;;9.60;90.40;;;;;;4969138;28;20775;-52
2020/12/16 09:23:08;;;;;;;13.30;7.53;;;9.70;90.40;;;;;;4965113;28;20031;-52
2020/12/16 09:25:33;;;;;;;17.88;7.13;;;9.60;90.40;;;;;;4977850;28;20037;-52
2020/12/16 09:28:01;;;;;;;15.00;7.75;;;9.70;90.40;;;;;;4965032;28;20033;-52
2020/12/16 09:30:35;;;;;;;17.83;8.43;;;9.70;90.60;;;;;;4969903;28;20027;-52
2020/12/16 09:33:15;;;;;;;18.48;8.75;;;9.60;90.60;;;;;;4966801;28;20055;-52
2020/12/16 09:35:42;;;;;;;15.95;8.25;;;9.70;90.70;;;;;;4969203;28;20034;-52
2020/12/16 09:38:19;;;;;;;17.63;8.52;;;9.70;90.40;;;;;;4961995;28;20042;-52
2020/12/16 09:40:45;;;;;;;16.75;8.00;;;9.70;90.60;;;;;;4958815;28;20118;-52
2020/12/16 09:43:11;;;;;;;19.40;9.27;;;9.70;90.40;;;;;;4974608;28;20356;-52
2020/12/16 09:45:38;;;;;;;15.32;7.82;;;9.70;90.50;;;;;;4973262;28;20039;-52
2020/12/16 09:48:06;;;;;;;15.48;8.68;;;9.80;91.00;;;;;;4963459;28;20030;-51
2020/12/16 09:50:34;;;;;;;15.00;8.30;;;9.80;90.80;;;;;;4972305;28;20031;-52
2020/12/16 09:53:02;;;;;;;16.90;7.65;;;9.90;90.50;;;;;;4962153;28;20050;-52
2020/12/16 09:55:29;;;;;;;15.05;8.00;;;10.00;90.10;;;;;;4974391;28;20037;-52
2020/12/16 09:57:59;;;;;;;17.20;8.13;;;10.10;90.00;;;;;;4969639;28;20122;-52
2020/12/16 10:00:25;;;;;;;18.15;9.60;;;10.20;90.20;;;;;;4970023;28;20338;-52
2020/12/16 10:03:05;;;;;;;17.05;8.43;;;10.20;88.20;;;;;;4966312;28;20042;-52
2020/12/16 10:05:35;;;;;;;20.70;8.52;;;10.20;90.00;;;;;;4968246;28;20015;-52
2020/12/16 10:08:02;;;;;;;19.27;8.30;;;10.20;90.60;;;;;;4966664;28;20536;-52
2020/12/16 10:10:28;;;;;;;16.73;7.78;;;10.20;90.90;;;;;;4963646;28;20074;-52
2020/12/16 10:12:54;;;;;;;16.75;7.63;;;10.30;90.00;;;;;;4969378;28;20050;-52
2020/12/16 10:15:20;;;;;;;19.73;8.48;;;10.30;89.90;;;;;;4976060;28;20023;-52
2020/12/16 10:17:45;;;;;;;21.55;8.90;;;10.30;90.00;;;;;;4965898;28;20031;-52
2020/12/16 10:20:11;;;;;;;18.77;8.65;;;10.30;90.10;;;;;;4971301;28;20035;-52
2020/12/16 10:22:37;;;;;;;23.92;9.55;;;10.20;90.50;;;;;;4973097;28;20371;-52
2020/12/16 10:25:04;;;;;;;19.83;8.55;;;10.30;91.00;;;;;;4976228;28;20030;-52
2020/12/16 10:27:29;;;;;;;28.00;11.73;;;10.40;90.40;;;;;;4974562;28;20034;-52
2020/12/16 10:29:59;;;;;;;21.80;10.48;;;10.40;90.30;;;;;;4962644;28;20037;-52
2020/12/16 10:32:25;;;;;;;26.07;11.07;;;10.60;90.70;;;;;;4970746;28;20417;-52
2020/12/16 10:34:53;;;;;;;24.85;11.60;;;10.60;91.00;;;;;;4972905;28;20046;-52
2020/12/16 10:37:23;;;;;;;19.42;9.40;;;10.70;91.00;;;;;;4966882;28;20488;-52
2020/12/16 10:39:49;;;;;;;17.58;7.30;;;10.70;90.60;;;;;;4971036;28;20173;-52
2020/12/16 10:42:15;;;;;;;22.48;9.43;;;10.70;90.40;;;;;;4970289;28;20034;-52
2020/12/16 10:44:41;;;;;;;23.02;10.40;;;10.70;90.10;;;;;;4973724;28;20030;-52
2020/12/16 10:47:07;;;;;;;21.83;10.30;;;10.80;90.60;;;;;;4963998;28;20039;-52
2020/12/16 10:49:35;;;;;;;17.90;9.70;;;10.80;90.40;;;;;;4969090;28;20015;-52
2020/12/16 10:52:06;;;;;;;23.98;11.70;;;10.90;90.40;;;;;;4961111;28;20038;-52
2020/12/16 10:54:32;;;;;;;15.23;6.90;;;11.00;89.40;;;;;;4964051;28;20478;-52
2020/12/16 10:56:58;;;;;;;24.17;9.85;;;11.10;89.20;;;;;;4961921;28;20045;-52
2020/12/16 10:59:25;;;;;;;18.08;10.55;;;11.20;88.40;;;;;;4973429;28;20058;-52
2020/12/16 11:01:51;;;;;;;27.73;11.32;;;11.30;88.30;;;;;;4966015;28;20035;-53
2020/12/16 11:04:17;;;;;;;23.95;10.48;;;11.40;87.70;;;;;;4961388;28;20407;-52
2020/12/16 11:06:48;;;;;;;23.38;9.30;;;11.50;87.30;;;;;;4967090;28;20405;-52
2020/12/16 11:09:15;;;;;;;28.02;9.80;;;11.50;87.00;;;;;;4975043;28;20026;-52
2020/12/16 11:11:43;;;;;;;20.98;10.38;;;11.60;87.50;;;;;;4963658;28;20114;-52
2020/12/16 11:14:09;;;;;;;20.83;8.80;;;11.60;86.90;;;;;;4963177;28;20085;-52
2020/12/16 11:16:35;;;;;;;24.55;11.73;;;11.70;86.60;;;;;;4968967;28;20404;-52
2020/12/16 11:19:00;;;;;;;26.50;10.77;;;11.70;86.90;;;;;;4965262;28;20454;-52
2020/12/16 11:21:27;;;;;;;17.48;8.70;;;11.70;86.50;;;;;;4968108;28;20027;-52
2020/12/16 11:23:53;;;;;;;24.58;9.27;;;11.70;86.40;;;;;;4965670;28;20057;-52
2020/12/16 11:26:19;;;;;;;19.20;10.70;;;11.80;86.40;;;;;;4972841;28;20089;-52
2020/12/16 11:28:45;;;;;;;18.95;8.70;;;11.80;87.30;;;;;;4967733;28;20464;-52
2020/12/16 11:31:11;;;;;;;30.20;11.57;;;11.80;86.50;;;;;;4968820;28;20420;-53
2020/12/16 11:33:36;;;;;;;22.40;11.75;;;11.70;86.60;;;;;;4963238;28;20051;-53
2020/12/16 11:36:08;;;;;;;19.95;9.68;;;11.70;86.70;;;;;;4965832;28;20023;-52
2020/12/16 11:38:34;;;;;;;23.70;11.07;;;11.70;86.90;;;;;;4962035;28;20096;-52
2020/12/16 11:41:00;;;;;;;24.27;11.50;;;11.70;87.20;;;;;;4964118;28;20122;-52
2020/12/16 11:43:25;;;;;;;21.02;10.60;;;11.70;87.40;;;;;;4963725;28;20042;-52
2020/12/16 11:45:54;;;;;;;19.48;8.13;;;11.70;87.40;;;;;;4959852;28;20049;-52
2020/12/16 11:48:20;;;;;;;17.17;9.10;;;11.80;87.60;;;;;;4965897;28;20035;-52
2020/12/16 11:50:46;;;;;;;28.10;11.25;;;11.70;87.70;;;;;;4974849;28;20353;-52
2020/12/16 11:53:12;;;;;;;17.05;8.27;;;11.70;87.80;;;;;;4972777;28;20150;-52
2020/12/16 11:55:38;;;;;;;29.83;12.52;;;11.70;87.90;;;;;;4967102;28;20507;-52
2020/12/16 11:58:03;;;;;;;28.20;13.20;;;11.70;88.00;;;;;;4964639;28;20027;-52
2020/12/16 12:00:29;;;;;;;25.67;11.50;;;11.70;88.10;;;;;;4965895;28;20019;-52
2020/12/16 12:02:55;;;;;;;20.38;9.80;;;11.70;88.30;;;;;;4965300;28;20030;-52
2020/12/16 12:05:20;;;;;;;20.23;8.70;;;11.60;88.20;;;;;;4963414;28;20070;-52
2020/12/16 12:07:46;;;;;;;27.15;11.18;;;11.70;88.30;;;;;;4964311;28;20034;-52
2020/12/16 12:10:11;;;;;;;24.20;12.02;;;11.70;88.20;;;;;;4966469;28;20019;-52
2020/12/16 12:12:37;;;;;;;24.85;10.85;;;11.70;88.30;;;;;;4963975;28;20038;-52
2020/12/16 12:15:04;;;;;;;27.27;10.02;;;11.70;88.20;;;;;;4967396;28;20029;-52
2020/12/16 12:17:30;;;;;;;27.58;11.35;;;11.60;88.70;;;;;;4967416;28;20048;-52
2020/12/16 12:19:55;;;;;;;18.35;9.82;;;11.60;89.50;;;;;;4967982;28;20460;-52
2020/12/16 12:22:21;;;;;;;27.38;12.05;;;11.50;90.30;;;;;;4968814;28;20091;-52
2020/12/16 12:24:47;;;;;;;25.35;10.30;;;11.50;89.90;;;;;;4968813;28;20027;-52
2020/12/16 12:27:12;;;;;;;28.67;13.27;;;11.50;90.10;;;;;;4974946;28;20023;-52
2020/12/16 12:29:38;;;;;;;28.85;12.25;;;11.60;90.30;;;;;;4963584;28;20026;-52
2020/12/16 12:32:04;;;;;;;27.63;12.63;;;11.60;90.50;;;;;;4972185;28;20035;-52
2020/12/16 12:34:29;;;;;;;28.20;12.65;;;11.50;91.20;;;;;;4978007;28;20049;-52
2020/12/16 12:36:55;;;;;;;20.40;11.00;;;11.50;91.50;;;;;;4970008;28;20035;-52
2020/12/16 12:39:36;;;;;;;24.60;11.02;;;11.40;91.80;;;;;;4953973;28;20055;-52
2020/12/16 12:42:01;;;;;;;28.08;11.27;;;11.40;91.70;;;;;;4970805;28;20408;-52
2020/12/16 12:44:27;;;;;;;31.27;11.88;;;11.30;91.60;;;;;;4973050;28;20030;-52
2020/12/16 12:46:53;;;;;;;23.10;11.85;;;11.30;91.80;;;;;;4960401;28;20031;-52